Jaguar — PCKO — position and weather

sailwx.info

Track history (hours):
 
Tides and Currents Weather Stations Pressure Air Temp Water Temp Dewpoint Dewpoint Depression Visibility Wind Speed Wind Dir Waves Ship Positions

Jaguar

Last reported at 2018-Apr-23 11:39 UTC. Time now 2018-Apr-23 13:52 UTC.
Position N 51°50' E 002°44'.

Length 108 m; draft 4.2 m.

Type: Ship. MMSI: 245296000.

Date/timePositionNaut miles runAvg speedWind from/ knotsBaromVisibWave heightAir tempDewpointWater temp
2018-Apr-23 11:39N 51°50' E 002°44'1 7.7
2018-Apr-23 11:30N 51°49' E 002°42'4 7.7
2018-Apr-23 10:59N 51°46' E 002°38'4 7.9
2018-Apr-23 10:30N 51°43' E 002°34'4 8.2
2018-Apr-23 09:59N 51°40' E 002°30'4 8.8
2018-Apr-23 09:30N 51°37' E 002°25'5 9.1
2018-Apr-23 09:00N 51°33' E 002°20'5 9.4
2018-Apr-23 08:30N 51°29' E 002°16'4 9.2
2018-Apr-23 08:00N 51°25' E 002°13'5 9.4
2018-Apr-23 07:30N 51°21' E 002°09'5 9.4
2018-Apr-23 07:00N 51°17' E 002°06'611.2
2018-Apr-23 06:31N 51°13' E 001°60'611.5
2018-Apr-23 06:00N 51°10' E 001°52'611.5
2018-Apr-23 05:30N 51°06' E 001°46'612.1
2018-Apr-23 05:00N 51°01' E 001°39'3111.3
2018-Apr-23 02:17N 50°37' E 001°09'3610.2
2018-Apr-22 22:45N 50°24' E 000°16'4 9.6
2018-Apr-22 22:20N 50°23' E 000°10'4 9.4
2018-Apr-22 21:55N 50°22' E 000°04'5 9.1
2018-Apr-22 21:20N 50°20' W 000°04'3 8.8
2018-Apr-22 20:57N 50°19' W 000°09'4 8.7
2018-Apr-22 20:30N 50°18' W 000°15'4 8.3
2018-Apr-22 20:00N 50°17' W 000°21'4 8.1
2018-Apr-22 19:30N 50°16' W 000°27'4 8.0
2018-Apr-22 19:00N 50°15' W 000°33'4 8.0
2018-Apr-22 18:30N 50°14' W 000°39'4 8.1
2018-Apr-22 18:00N 50°13' W 000°45'4 8.2
2018-Apr-22 17:30N 50°12' W 000°52'4 8.5
2018-Apr-22 17:00N 50°10' W 000°58'4 9.0
2018-Apr-22 16:30N 50°09' W 001°05'5 9.6
2018-Apr-22 16:00N 50°08' W 001°12'510.1
2018-Apr-22 15:30N 50°06' W 001°19'510.8
2018-Apr-22 15:00N 50°05' W 001°27'611.4
2018-Apr-22 14:30N 50°03' W 001°36'611.5
2018-Apr-22 14:00N 50°00' W 001°44'612.0
2018-Apr-22 13:30N 49°58' W 001°52'612.5
2018-Apr-22 13:00N 49°57' W 002°02'612.6
2018-Apr-22 12:30N 49°55' W 002°11'612.5
2018-Apr-22 12:00N 49°54' W 002°21'612.2
2018-Apr-22 11:30N 49°52' W 002°30'611.7
2018-Apr-22 11:00N 49°51' W 002°39'611.4
2018-Apr-22 10:30N 49°49' W 002°47'510.9
2018-Apr-22 10:00N 49°47' W 002°55'610.7
2018-Apr-22 09:25N 49°43' W 003°03'410.5
2018-Apr-22 09:00N 49°41' W 003°09'610.3
2018-Apr-22 08:28N 49°38' W 003°16'510.0
2018-Apr-22 07:58N 49°36' W 003°23'11 9.4
2018-Apr-22 06:46N 49°30' W 003°38'4 8.9
2018-Apr-22 06:16N 49°28' W 003°44'4 9.5
2018-Apr-22 05:53N 49°26' W 003°49'5 9.9
2018-Apr-22 05:24N 49°24' W 003°55'5 9.7
2018-Apr-22 04:53N 49°21' W 004°02'6 9.5
2018-Apr-22 04:12N 49°18' W 004°11'6 9.3
2018-Apr-22 03:35N 49°15' W 004°18'39 9.4
2018-Apr-21 23:25N 48°55' W 005°09'410.1
2018-Apr-21 23:00N 48°53' W 005°15'510.4
2018-Apr-21 22:30N 48°51' W 005°22'510.7
2018-Apr-21 22:00N 48°48' W 005°29'1510.6
2018-Apr-21 20:37N 48°36' W 005°42'111.2
2018-Apr-21 20:30N 48°35' W 005°43'711.4
2018-Apr-21 19:52N 48°28' W 005°48'2211.6
2018-Apr-21 17:58N 48°09' W 006°03'1111.5
2018-Apr-21 16:58N 47°59' W 006°11'  
2018-Apr-14 13:28N 39°24' W 009°45'4 8.7
2018-Apr-14 12:58N 39°19' W 009°45'4 8.8
2018-Apr-14 12:30N 39°15' W 009°46'4 8.8
2018-Apr-14 12:00N 39°11' W 009°47'4 8.7
2018-Apr-14 11:30N 39°07' W 009°48'4 8.6
2018-Apr-14 11:00N 39°02' W 009°48'4 8.6
2018-Apr-14 10:30N 38°58' W 009°49'4 8.5
2018-Apr-14 10:00N 38°54' W 009°50'4 8.3
2018-Apr-14 09:30N 38°50' W 009°50'4 8.3
2018-Apr-14 09:00N 38°46' W 009°50'4 8.0
2018-Apr-14 08:30N 38°42' W 009°50'4 7.9
2018-Apr-14 08:00N 38°38' W 009°48'4 7.7
2018-Apr-14 07:30N 38°34' W 009°47'4 7.5
2018-Apr-14 07:00N 38°30' W 009°46'4 7.6
2018-Apr-14 06:30N 38°27' W 009°45'4 7.4
2018-Apr-14 06:00N 38°23' W 009°44'4 7.4
2018-Apr-14 05:30N 38°19' W 009°43'4 7.1
2018-Apr-14 04:59N 38°16' W 009°42'3 7.2
2018-Apr-14 04:30N 38°13' W 009°41'4 7.4
2018-Apr-14 04:00N 38°09' W 009°40'4 7.2
2018-Apr-14 03:30N 38°06' W 009°38'4 7.3
2018-Apr-14 03:00N 38°02' W 009°37'4 7.1
2018-Apr-14 02:30N 37°59' W 009°36'4 7.1
2018-Apr-14 01:53N 37°54' W 009°35'3 6.9
2018-Apr-14 01:30N 37°52' W 009°34'3 6.8
2018-Apr-14 01:00N 37°48' W 009°33'4 6.7
2018-Apr-14 00:27N 37°45' W 009°32'3 6.4
2018-Apr-14 00:00N 37°42' W 009°31'3 6.6
2018-Apr-13 23:30N 37°39' W 009°30'31 6.3
2018-Apr-13 18:35N 37°08' W 009°23'0 5.8
2018-Apr-13 18:30N 37°08' W 009°23'  
Track history (hours):
 
Tides and Currents Weather Stations Pressure Air Temp Water Temp Dewpoint Dewpoint Depression Visibility Wind Speed Wind Dir Waves Ship Positions

Jaguar

Last reported at 2018-Apr-23 11:39 UTC. Time now 2018-Apr-23 13:52 UTC.
Position N 51°50' E 002°44'.

Length 108 m; draft 4.2 m.

Type: Ship. MMSI: 245296000.

Date/timePositionNaut miles runAvg speedWind from/ knotsBaromVisibWave heightAir tempDewpointWater temp
2018-Apr-23 11:39N 51°50' E 002°44'1 7.7
2018-Apr-23 11:30N 51°49' E 002°42'4 7.7
2018-Apr-23 10:59N 51°46' E 002°38'4 7.9
2018-Apr-23 10:30N 51°43' E 002°34'4 8.2
2018-Apr-23 09:59N 51°40' E 002°30'4 8.8
2018-Apr-23 09:30N 51°37' E 002°25'5 9.1
2018-Apr-23 09:00N 51°33' E 002°20'5 9.4
2018-Apr-23 08:30N 51°29' E 002°16'4 9.2
2018-Apr-23 08:00N 51°25' E 002°13'5 9.4
2018-Apr-23 07:30N 51°21' E 002°09'5 9.4
2018-Apr-23 07:00N 51°17' E 002°06'611.2
2018-Apr-23 06:31N 51°13' E 001°60'611.5
2018-Apr-23 06:00N 51°10' E 001°52'611.5
2018-Apr-23 05:30N 51°06' E 001°46'612.1
2018-Apr-23 05:00N 51°01' E 001°39'3111.3
2018-Apr-23 02:17N 50°37' E 001°09'3610.2
2018-Apr-22 22:45N 50°24' E 000°16'4 9.6
2018-Apr-22 22:20N 50°23' E 000°10'4 9.4
2018-Apr-22 21:55N 50°22' E 000°04'5 9.1
2018-Apr-22 21:20N 50°20' W 000°04'3 8.8
2018-Apr-22 20:57N 50°19' W 000°09'4 8.7
2018-Apr-22 20:30N 50°18' W 000°15'4 8.3
2018-Apr-22 20:00N 50°17' W 000°21'4 8.1
2018-Apr-22 19:30N 50°16' W 000°27'4 8.0
2018-Apr-22 19:00N 50°15' W 000°33'4 8.0
2018-Apr-22 18:30N 50°14' W 000°39'4 8.1
2018-Apr-22 18:00N 50°13' W 000°45'4 8.2
2018-Apr-22 17:30N 50°12' W 000°52'4 8.5
2018-Apr-22 17:00N 50°10' W 000°58'4 9.0
2018-Apr-22 16:30N 50°09' W 001°05'5 9.6
2018-Apr-22 16:00N 50°08' W 001°12'510.1
2018-Apr-22 15:30N 50°06' W 001°19'510.8
2018-Apr-22 15:00N 50°05' W 001°27'611.4
2018-Apr-22 14:30N 50°03' W 001°36'611.5
2018-Apr-22 14:00N 50°00' W 001°44'612.0
2018-Apr-22 13:30N 49°58' W 001°52'612.5
2018-Apr-22 13:00N 49°57' W 002°02'612.6
2018-Apr-22 12:30N 49°55' W 002°11'612.5
2018-Apr-22 12:00N 49°54' W 002°21'612.2
2018-Apr-22 11:30N 49°52' W 002°30'611.7
2018-Apr-22 11:00N 49°51' W 002°39'611.4
2018-Apr-22 10:30N 49°49' W 002°47'510.9
2018-Apr-22 10:00N 49°47' W 002°55'610.7
2018-Apr-22 09:25N 49°43' W 003°03'410.5
2018-Apr-22 09:00N 49°41' W 003°09'610.3
2018-Apr-22 08:28N 49°38' W 003°16'510.0
2018-Apr-22 07:58N 49°36' W 003°23'11 9.4
2018-Apr-22 06:46N 49°30' W 003°38'4 8.9
2018-Apr-22 06:16N 49°28' W 003°44'4 9.5
2018-Apr-22 05:53N 49°26' W 003°49'5 9.9
2018-Apr-22 05:24N 49°24' W 003°55'5 9.7
2018-Apr-22 04:53N 49°21' W 004°02'6 9.5
2018-Apr-22 04:12N 49°18' W 004°11'6 9.3
2018-Apr-22 03:35N 49°15' W 004°18'39 9.4
2018-Apr-21 23:25N 48°55' W 005°09'410.1
2018-Apr-21 23:00N 48°53' W 005°15'510.4
2018-Apr-21 22:30N 48°51' W 005°22'510.7
2018-Apr-21 22:00N 48°48' W 005°29'1510.6
2018-Apr-21 20:37N 48°36' W 005°42'111.2
2018-Apr-21 20:30N 48°35' W 005°43'711.4
2018-Apr-21 19:52N 48°28' W 005°48'2211.6
2018-Apr-21 17:58N 48°09' W 006°03'1111.5
2018-Apr-21 16:58N 47°59' W 006°11'  
2018-Apr-14 13:28N 39°24' W 009°45'4 8.7
2018-Apr-14 12:58N 39°19' W 009°45'4 8.8
2018-Apr-14 12:30N 39°15' W 009°46'4 8.8
2018-Apr-14 12:00N 39°11' W 009°47'4 8.7
2018-Apr-14 11:30N 39°07' W 009°48'4 8.6
2018-Apr-14 11:00N 39°02' W 009°48'4 8.6
2018-Apr-14 10:30N 38°58' W 009°49'4 8.5
2018-Apr-14 10:00N 38°54' W 009°50'4 8.3
2018-Apr-14 09:30N 38°50' W 009°50'4 8.3
2018-Apr-14 09:00N 38°46' W 009°50'4 8.0
2018-Apr-14 08:30N 38°42' W 009°50'4 7.9
2018-Apr-14 08:00N 38°38' W 009°48'4 7.7
2018-Apr-14 07:30N 38°34' W 009°47'4 7.5
2018-Apr-14 07:00N 38°30' W 009°46'4 7.6
2018-Apr-14 06:30N 38°27' W 009°45'4 7.4
2018-Apr-14 06:00N 38°23' W 009°44'4 7.4
2018-Apr-14 05:30N 38°19' W 009°43'4 7.1
2018-Apr-14 04:59N 38°16' W 009°42'3 7.2
2018-Apr-14 04:30N 38°13' W 009°41'4 7.4
2018-Apr-14 04:00N 38°09' W 009°40'4 7.2
2018-Apr-14 03:30N 38°06' W 009°38'4 7.3
2018-Apr-14 03:00N 38°02' W 009°37'4 7.1
2018-Apr-14 02:30N 37°59' W 009°36'4 7.1
2018-Apr-14 01:53N 37°54' W 009°35'3 6.9
2018-Apr-14 01:30N 37°52' W 009°34'3 6.8
2018-Apr-14 01:00N 37°48' W 009°33'4 6.7
2018-Apr-14 00:27N 37°45' W 009°32'3 6.4
2018-Apr-14 00:00N 37°42' W 009°31'3 6.6
2018-Apr-13 23:30N 37°39' W 009°30'31 6.3
2018-Apr-13 18:35N 37°08' W 009°23'0 5.8
2018-Apr-13 18:30N 37°08' W 009°23'  

Dump ship's entire track history